sensor_id;sensor_type;location;lat;lon;timestamp;pressure;altitude;pressure_sealevel;temperature;humidity
65659;BME280;60181;53.258;6.932;2023-02-07T00:01:05;104253.89;;;14.57;61.96
65659;BME280;60181;53.258;6.932;2023-02-07T00:05:06;104254.69;;;14.57;62.99
65659;BME280;60181;53.258;6.932;2023-02-07T00:09:10;104253.48;;;14.56;63.94
65659;BME280;60181;53.258;6.932;2023-02-07T00:13:13;104251.11;;;14.55;62.63
65659;BME280;60181;53.258;6.932;2023-02-07T00:17:17;104248.23;;;14.54;62.53
65659;BME280;60181;53.258;6.932;2023-02-07T00:21:22;104245.57;;;14.54;62.27
65659;BME280;60181;53.258;6.932;2023-02-07T00:25:25;104245.50;;;14.54;62.13
65659;BME280;60181;53.258;6.932;2023-02-07T00:29:29;104246.75;;;14.54;62.10
65659;BME280;60181;53.258;6.932;2023-02-07T00:33:34;104246.58;;;14.54;62.36
65659;BME280;60181;53.258;6.932;2023-02-07T00:37:37;104246.75;;;14.54;62.33
65659;BME280;60181;53.258;6.932;2023-02-07T00:41:42;104246.48;;;14.54;62.40
65659;BME280;60181;53.258;6.932;2023-02-07T00:45:45;104247.30;;;14.53;62.59
65659;BME280;60181;53.258;6.932;2023-02-07T00:49:49;104246.91;;;14.53;62.41
65659;BME280;60181;53.258;6.932;2023-02-07T00:53:54;104246.56;;;14.52;62.32
65659;BME280;60181;53.258;6.932;2023-02-07T00:57:57;104248.14;;;14.51;62.25
65659;BME280;60181;53.258;6.932;2023-02-07T01:02:01;104249.07;;;14.49;62.35
65659;BME280;60181;53.258;6.932;2023-02-07T01:06:06;104249.93;;;14.47;62.22
65659;BME280;60181;53.258;6.932;2023-02-07T01:10:09;104249.76;;;14.46;62.31
65659;BME280;60181;53.258;6.932;2023-02-07T01:14:13;104248.71;;;14.44;62.44
65659;BME280;60181;53.258;6.932;2023-02-07T01:18:17;104248.45;;;14.42;62.42
65659;BME280;60181;53.258;6.932;2023-02-07T01:22:21;104248.83;;;14.41;62.39
65659;BME280;60181;53.258;6.932;2023-02-07T01:26:26;104249.82;;;14.39;62.43
65659;BME280;60181;53.258;6.932;2023-02-07T01:30:29;104250.56;;;14.38;62.32
65659;BME280;60181;53.258;6.932;2023-02-07T01:34:34;104249.41;;;14.37;62.48
65659;BME280;60181;53.258;6.932;2023-02-07T01:38:37;104249.34;;;14.36;62.46
65659;BME280;60181;53.258;6.932;2023-02-07T01:42:41;104250.83;;;14.35;62.51
65659;BME280;60181;53.258;6.932;2023-02-07T01:46:45;104252.08;;;14.34;62.65
65659;BME280;60181;53.258;6.932;2023-02-07T01:50:50;104252.27;;;14.33;62.67
65659;BME280;60181;53.258;6.932;2023-02-07T01:54:54;104250.21;;;14.32;62.78
65659;BME280;60181;53.258;6.932;2023-02-07T01:58:57;104248.00;;;14.31;62.75
65659;BME280;60181;53.258;6.932;2023-02-07T02:03:01;104246.64;;;14.30;62.79
65659;BME280;60181;53.258;6.932;2023-02-07T02:07:05;104244.75;;;14.29;62.75
65659;BME280;60181;53.258;6.932;2023-02-07T02:31:45;104255.97;;;14.29;63.31
65659;BME280;60181;53.258;6.932;2023-02-07T02:35:44;104257.47;;;14.28;63.33
65659;BME280;60181;53.258;6.932;2023-02-07T02:47:46;104255.11;;;14.26;63.05
65659;BME280;60181;53.258;6.932;2023-02-07T02:51:50;104254.00;;;14.21;63.57
65659;BME280;60181;53.258;6.932;2023-02-07T02:56:06;104250.42;;;14.11;63.48
65659;BME280;60181;53.258;6.932;2023-02-07T03:00:08;104248.32;;;14.02;63.22
65659;BME280;60181;53.258;6.932;2023-02-07T03:08:11;104247.69;;;13.86;63.23
65659;BME280;60181;53.258;6.932;2023-02-07T03:12:15;104245.86;;;13.80;63.62
65659;BME280;60181;53.258;6.932;2023-02-07T03:20:22;104240.00;;;13.69;63.12
65659;BME280;60181;53.258;6.932;2023-02-07T03:24:25;104239.26;;;13.65;63.05
65659;BME280;60181;53.258;6.932;2023-02-07T03:28:25;104235.36;;;13.62;63.23
65659;BME280;60181;53.258;6.932;2023-02-07T03:32:31;104231.75;;;13.58;62.90
65659;BME280;60181;53.258;6.932;2023-02-07T03:36:37;104231.99;;;13.56;63.10
65659;BME280;60181;53.258;6.932;2023-02-07T03:40:44;104230.42;;;13.53;63.10
65659;BME280;60181;53.258;6.932;2023-02-07T03:44:41;104228.86;;;13.51;63.13
65659;BME280;60181;53.258;6.932;2023-02-07T03:48:45;104229.03;;;13.49;62.75
65659;BME280;60181;53.258;6.932;2023-02-07T03:52:49;104230.35;;;13.47;62.94
65659;BME280;60181;53.258;6.932;2023-02-07T03:56:53;104233.28;;;13.46;62.67
65659;BME280;60181;53.258;6.932;2023-02-07T04:00:57;104236.40;;;13.45;62.67
65659;BME280;60181;53.258;6.932;2023-02-07T04:05:01;104240.59;;;13.43;62.81
65659;BME280;60181;53.258;6.932;2023-02-07T04:09:05;104244.30;;;13.42;62.71
65659;BME280;60181;53.258;6.932;2023-02-07T04:13:09;104246.44;;;13.41;62.68
65659;BME280;60181;53.258;6.932;2023-02-07T04:17:13;104246.41;;;13.40;62.56
65659;BME280;60181;53.258;6.932;2023-02-07T04:21:17;104246.94;;;13.38;62.60
65659;BME280;60181;53.258;6.932;2023-02-07T04:25:21;104248.79;;;13.37;62.50
65659;BME280;60181;53.258;6.932;2023-02-07T04:29:25;104249.22;;;13.36;62.25
65659;BME280;60181;53.258;6.932;2023-02-07T04:33:29;104250.95;;;13.35;62.39
65659;BME280;60181;53.258;6.932;2023-02-07T04:37:33;104250.55;;;13.34;62.22
65659;BME280;60181;53.258;6.932;2023-02-07T04:41:37;104251.51;;;13.40;61.35
65659;BME280;60181;53.258;6.932;2023-02-07T04:45:41;104253.27;;;13.43;61.41
65659;BME280;60181;53.258;6.932;2023-02-07T04:49:45;104252.95;;;13.46;61.28
65659;BME280;60181;53.258;6.932;2023-02-07T04:53:49;104254.57;;;13.47;61.33
65659;BME280;60181;53.258;6.932;2023-02-07T04:57:53;104258.86;;;13.48;61.45
65659;BME280;60181;53.258;6.932;2023-02-07T05:01:57;104260.84;;;13.48;61.44
65659;BME280;60181;53.258;6.932;2023-02-07T05:06:01;104260.84;;;13.48;61.43
65659;BME280;60181;53.258;6.932;2023-02-07T05:10:05;104260.83;;;13.47;61.37
65659;BME280;60181;53.258;6.932;2023-02-07T05:14:09;104261.00;;;13.47;61.52
65659;BME280;60181;53.258;6.932;2023-02-07T05:18:13;104260.36;;;13.46;61.50
65659;BME280;60181;53.258;6.932;2023-02-07T05:22:17;104258.13;;;13.46;61.45
65659;BME280;60181;53.258;6.932;2023-02-07T05:26:21;104258.06;;;13.44;61.56
65659;BME280;60181;53.258;6.932;2023-02-07T05:30:25;104258.31;;;13.43;61.54
65659;BME280;60181;53.258;6.932;2023-02-07T05:34:29;104258.45;;;13.43;61.43
65659;BME280;60181;53.258;6.932;2023-02-07T05:38:33;104258.83;;;13.43;61.44
65659;BME280;60181;53.258;6.932;2023-02-07T05:42:37;104257.97;;;13.42;61.50
65659;BME280;60181;53.258;6.932;2023-02-07T05:46:41;104255.43;;;13.41;61.44
65659;BME280;60181;53.258;6.932;2023-02-07T05:50:45;104252.22;;;13.40;61.51
65659;BME280;60181;53.258;6.932;2023-02-07T05:54:49;104251.72;;;13.39;61.50
65659;BME280;60181;53.258;6.932;2023-02-07T05:58:53;104250.89;;;13.38;61.54
65659;BME280;60181;53.258;6.932;2023-02-07T06:02:57;104249.29;;;13.37;61.56
65659;BME280;60181;53.258;6.932;2023-02-07T06:07:01;104245.59;;;13.36;61.51
65659;BME280;60181;53.258;6.932;2023-02-07T06:11:05;104240.17;;;13.35;61.46
65659;BME280;60181;53.258;6.932;2023-02-07T06:15:09;104236.95;;;13.35;61.43
65659;BME280;60181;53.258;6.932;2023-02-07T06:19:13;104233.91;;;13.34;61.49
65659;BME280;60181;53.258;6.932;2023-02-07T06:23:17;104231.96;;;13.33;61.44
65659;BME280;60181;53.258;6.932;2023-02-07T06:27:21;104233.75;;;13.33;61.43
65659;BME280;60181;53.258;6.932;2023-02-07T06:31:25;104234.66;;;13.32;61.46
65659;BME280;60181;53.258;6.932;2023-02-07T06:35:29;104234.58;;;13.31;61.47
65659;BME280;60181;53.258;6.932;2023-02-07T06:39:33;104234.67;;;13.30;61.55
65659;BME280;60181;53.258;6.932;2023-02-07T06:43:37;104234.03;;;13.29;61.58
65659;BME280;60181;53.258;6.932;2023-02-07T06:47:41;104235.11;;;13.28;61.56
65659;BME280;60181;53.258;6.932;2023-02-07T06:51:45;104235.45;;;13.27;61.57
65659;BME280;60181;53.258;6.932;2023-02-07T06:55:49;104236.49;;;13.26;61.51
65659;BME280;60181;53.258;6.932;2023-02-07T06:59:53;104238.65;;;13.26;61.62
65659;BME280;60181;53.258;6.932;2023-02-07T07:03:57;104239.79;;;13.24;61.52
65659;BME280;60181;53.258;6.932;2023-02-07T07:08:01;104239.81;;;13.24;61.50
65659;BME280;60181;53.258;6.932;2023-02-07T07:12:05;104238.48;;;13.23;61.51
65659;BME280;60181;53.258;6.932;2023-02-07T07:16:09;104235.34;;;13.23;61.43
65659;BME280;60181;53.258;6.932;2023-02-07T07:20:13;104231.02;;;13.22;61.55
65659;BME280;60181;53.258;6.932;2023-02-07T07:24:17;104227.37;;;13.22;61.58
65659;BME280;60181;53.258;6.932;2023-02-07T07:28:21;104224.65;;;13.23;61.34
65659;BME280;60181;53.258;6.932;2023-02-07T07:32:25;104223.33;;;13.29;60.60
65659;BME280;60181;53.258;6.932;2023-02-07T07:36:29;104222.90;;;13.35;60.56
65659;BME280;60181;53.258;6.932;2023-02-07T07:40:33;104221.41;;;13.38;60.59
65659;BME280;60181;53.258;6.932;2023-02-07T07:44:37;104219.70;;;13.40;60.57
65659;BME280;60181;53.258;6.932;2023-02-07T07:48:41;104219.84;;;13.42;60.50
65659;BME280;60181;53.258;6.932;2023-02-07T07:52:45;104219.68;;;13.43;60.42
65659;BME280;60181;53.258;6.932;2023-02-07T07:56:49;104221.56;;;13.44;60.40
65659;BME280;60181;53.258;6.932;2023-02-07T08:00:53;104221.40;;;13.46;60.29
65659;BME280;60181;53.258;6.932;2023-02-07T08:04:57;104221.95;;;13.47;60.17
65659;BME280;60181;53.258;6.932;2023-02-07T08:09:01;104222.19;;;13.50;60.01
65659;BME280;60181;53.258;6.932;2023-02-07T08:13:05;104220.20;;;13.52;59.90
65659;BME280;60181;53.258;6.932;2023-02-07T08:17:09;104218.51;;;13.54;59.89
65659;BME280;60181;53.258;6.932;2023-02-07T08:21:13;104218.24;;;13.56;59.87
65659;BME280;60181;53.258;6.932;2023-02-07T08:25:17;104218.65;;;13.57;59.92
65659;BME280;60181;53.258;6.932;2023-02-07T08:29:21;104219.38;;;13.87;55.93
65659;BME280;60181;53.258;6.932;2023-02-07T08:33:25;104219.63;;;14.03;58.17
65659;BME280;60181;53.258;6.932;2023-02-07T08:37:29;104221.75;;;14.04;59.14
65659;BME280;60181;53.258;6.932;2023-02-07T08:41:33;104225.63;;;14.03;59.16
65659;BME280;60181;53.258;6.932;2023-02-07T08:45:40;104229.19;;;14.03;58.97
65659;BME280;60181;53.258;6.932;2023-02-07T08:49:41;104233.62;;;14.05;58.83
65659;BME280;60181;53.258;6.932;2023-02-07T08:53:45;104237.72;;;14.09;58.74
65659;BME280;60181;53.258;6.932;2023-02-07T08:57:49;104242.41;;;14.12;58.65
65659;BME280;60181;53.258;6.932;2023-02-07T09:01:53;104245.21;;;14.16;58.63
65659;BME280;60181;53.258;6.932;2023-02-07T09:05:57;104245.64;;;14.20;58.60
65659;BME280;60181;53.258;6.932;2023-02-07T09:10:01;104245.54;;;14.24;58.61
65659;BME280;60181;53.258;6.932;2023-02-07T09:14:05;104245.69;;;14.27;58.57
65659;BME280;60181;53.258;6.932;2023-02-07T09:18:09;104246.98;;;14.30;58.61
65659;BME280;60181;53.258;6.932;2023-02-07T09:22:13;104249.61;;;14.34;58.58
65659;BME280;60181;53.258;6.932;2023-02-07T09:26:18;104251.56;;;14.37;58.52
65659;BME280;60181;53.258;6.932;2023-02-07T09:30:21;104253.92;;;14.40;58.51
65659;BME280;60181;53.258;6.932;2023-02-07T09:34:25;104254.00;;;14.43;58.46
65659;BME280;60181;53.258;6.932;2023-02-07T09:38:29;104254.81;;;14.56;57.45
65659;BME280;60181;53.258;6.932;2023-02-07T09:42:33;104256.48;;;14.78;57.23
65659;BME280;60181;53.258;6.932;2023-02-07T09:46:38;104257.89;;;14.86;58.06
65659;BME280;60181;53.258;6.932;2023-02-07T09:50:43;104258.98;;;14.89;58.37
65659;BME280;60181;53.258;6.932;2023-02-07T09:54:45;104259.62;;;14.90;58.51
65659;BME280;60181;53.258;6.932;2023-02-07T09:59:05;104259.64;;;14.89;58.59
65659;BME280;60181;53.258;6.932;2023-02-07T10:02:56;104261.40;;;14.88;58.62
65659;BME280;60181;53.258;6.932;2023-02-07T10:06:57;104263.88;;;14.87;58.72
65659;BME280;60181;53.258;6.932;2023-02-07T10:19:19;104267.14;;;14.84;59.05
65659;BME280;60181;53.258;6.932;2023-02-07T10:27:23;104270.45;;;14.80;59.12
65659;BME280;60181;53.258;6.932;2023-02-07T10:31:20;104273.28;;;14.78;59.14
65659;BME280;60181;53.258;6.932;2023-02-07T10:35:30;104274.69;;;14.76;59.22
65659;BME280;60181;53.258;6.932;2023-02-07T10:39:32;104274.72;;;14.73;59.28
65659;BME280;60181;53.258;6.932;2023-02-07T10:43:33;104272.67;;;14.71;59.34
65659;BME280;60181;53.258;6.932;2023-02-07T10:47:37;104272.28;;;14.69;59.37
65659;BME280;60181;53.258;6.932;2023-02-07T10:51:41;104270.32;;;14.66;59.45
65659;BME280;60181;53.258;6.932;2023-02-07T10:55:45;104269.68;;;14.64;59.55
65659;BME280;60181;53.258;6.932;2023-02-07T10:59:48;104268.03;;;14.61;59.62
65659;BME280;60181;53.258;6.932;2023-02-07T11:03:52;104265.55;;;14.59;59.73
65659;BME280;60181;53.258;6.932;2023-02-07T11:08:01;104265.28;;;14.56;59.82
65659;BME280;60181;53.258;6.932;2023-02-07T11:12:00;104264.64;;;14.54;59.92
65659;BME280;60181;53.258;6.932;2023-02-07T11:16:05;104262.73;;;14.51;60.08
65659;BME280;60181;53.258;6.932;2023-02-07T11:20:10;104260.79;;;14.48;60.19
65659;BME280;60181;53.258;6.932;2023-02-07T11:32:21;104257.19;;;14.41;60.44
65659;BME280;60181;53.258;6.932;2023-02-07T11:36:29;104254.28;;;14.39;60.48
65659;BME280;60181;53.258;6.932;2023-02-07T11:40:29;104251.38;;;14.36;60.56
65659;BME280;60181;53.258;6.932;2023-02-07T11:44:32;104248.85;;;14.35;60.60
65659;BME280;60181;53.258;6.932;2023-02-07T11:48:37;104246.95;;;14.33;60.62
65659;BME280;60181;53.258;6.932;2023-02-07T11:52:47;104244.52;;;14.32;60.61
65659;BME280;60181;53.258;6.932;2023-02-07T11:56:48;104241.47;;;14.31;60.60
65659;BME280;60181;53.258;6.932;2023-02-07T12:00:48;104238.27;;;14.29;60.56
65659;BME280;60181;53.258;6.932;2023-02-07T12:04:52;104236.84;;;14.29;60.66
65659;BME280;60181;53.258;6.932;2023-02-07T12:08:56;104234.55;;;14.28;60.65
65659;BME280;60181;53.258;6.932;2023-02-07T12:13:05;104232.52;;;14.27;60.63
65659;BME280;60181;53.258;6.932;2023-02-07T12:17:05;104230.03;;;14.27;60.67
65659;BME280;60181;53.258;6.932;2023-02-07T12:21:31;104228.61;;;14.27;60.74
65659;BME280;60181;53.258;6.932;2023-02-07T12:25:17;104226.25;;;14.26;60.74
65659;BME280;60181;53.258;6.932;2023-02-07T12:33:22;104222.61;;;14.26;60.74
65659;BME280;60181;53.258;6.932;2023-02-07T12:37:41;104222.02;;;14.25;60.75
65659;BME280;60181;53.258;6.932;2023-02-07T12:41:38;104222.31;;;14.31;60.34
65659;BME280;60181;53.258;6.932;2023-02-07T12:58:07;104215.94;;;14.33;61.18
65659;BME280;60181;53.258;6.932;2023-02-07T13:01:52;104214.88;;;14.33;61.05
65659;BME280;60181;53.258;6.932;2023-02-07T13:06:00;104212.45;;;14.32;61.22
65659;BME280;60181;53.258;6.932;2023-02-07T13:10:08;104209.69;;;14.30;61.32
65659;BME280;60181;53.258;6.932;2023-02-07T13:18:15;104206.47;;;14.26;61.36
65659;BME280;60181;53.258;6.932;2023-02-07T13:22:11;104204.47;;;14.24;61.33
65659;BME280;60181;53.258;6.932;2023-02-07T13:26:13;104202.09;;;14.23;61.32
65659;BME280;60181;53.258;6.932;2023-02-07T13:30:16;104200.04;;;14.22;61.32
65659;BME280;60181;53.258;6.932;2023-02-07T13:34:22;104198.40;;;14.21;61.28
65659;BME280;60181;53.258;6.932;2023-02-07T13:38:36;104197.44;;;14.21;61.25
65659;BME280;60181;53.258;6.932;2023-02-07T13:42:40;104197.19;;;14.20;61.31
65659;BME280;60181;53.258;6.932;2023-02-07T13:50:47;104196.50;;;14.20;61.30
65659;BME280;60181;53.258;6.932;2023-02-07T13:54:50;104193.98;;;14.19;61.30
65659;BME280;60181;53.258;6.932;2023-02-07T14:02:49;104190.16;;;14.19;61.28
65659;BME280;60181;53.258;6.932;2023-02-07T14:10:56;104186.66;;;14.18;61.35
65659;BME280;60181;53.258;6.932;2023-02-07T14:19:07;104182.20;;;14.17;61.37
65659;BME280;60181;53.258;6.932;2023-02-07T14:23:15;104181.85;;;14.17;61.40
65659;BME280;60181;53.258;6.932;2023-02-07T14:27:25;104180.48;;;14.16;61.41
65659;BME280;60181;53.258;6.932;2023-02-07T14:31:20;104177.89;;;14.15;61.41
65659;BME280;60181;53.258;6.932;2023-02-07T14:39:31;104174.23;;;14.14;61.43
65659;BME280;60181;53.258;6.932;2023-02-07T14:43:38;104174.71;;;14.13;61.46
65659;BME280;60181;53.258;6.932;2023-02-07T14:47:32;104175.32;;;14.13;61.46
65659;BME280;60181;53.258;6.932;2023-02-07T14:51:46;104175.05;;;14.12;61.46
65659;BME280;60181;53.258;6.932;2023-02-07T14:55:41;104173.84;;;14.12;61.50
65659;BME280;60181;53.258;6.932;2023-02-07T14:59:57;104172.83;;;14.11;61.46
65659;BME280;60181;53.258;6.932;2023-02-07T15:03:58;104172.12;;;14.11;61.48
65659;BME280;60181;53.258;6.932;2023-02-07T15:12:00;104172.52;;;14.10;61.46
65659;BME280;60181;53.258;6.932;2023-02-07T15:16:07;104172.19;;;14.10;61.52
65659;BME280;60181;53.258;6.932;2023-02-07T15:20:04;104171.94;;;14.10;61.54
65659;BME280;60181;53.258;6.932;2023-02-07T15:24:20;104170.80;;;14.11;61.38
65659;BME280;60181;53.258;6.932;2023-02-07T15:32:23;104168.92;;;14.14;61.50
65659;BME280;60181;53.258;6.932;2023-02-07T15:36:33;104167.63;;;14.13;61.65
65659;BME280;60181;53.258;6.932;2023-02-07T15:40:24;104166.56;;;14.12;61.71
65659;BME280;60181;53.258;6.932;2023-02-07T15:44:29;104165.25;;;14.11;61.74
65659;BME280;60181;53.258;6.932;2023-02-07T15:48:32;104163.32;;;14.10;61.80
65659;BME280;60181;53.258;6.932;2023-02-07T15:52:38;104162.06;;;14.08;61.83
65659;BME280;60181;53.258;6.932;2023-02-07T15:56:40;104162.06;;;14.07;61.86
65659;BME280;60181;53.258;6.932;2023-02-07T16:00:44;104162.79;;;14.05;61.89
65659;BME280;60181;53.258;6.932;2023-02-07T16:04:48;104163.92;;;14.04;61.92
65659;BME280;60181;53.258;6.932;2023-02-07T16:08:53;104164.66;;;14.02;61.93
65659;BME280;60181;53.258;6.932;2023-02-07T16:13:00;104166.55;;;14.01;62.00
65659;BME280;60181;53.258;6.932;2023-02-07T16:17:00;104167.91;;;13.99;62.01
65659;BME280;60181;53.258;6.932;2023-02-07T16:21:04;104167.72;;;13.97;62.06
65659;BME280;60181;53.258;6.932;2023-02-07T16:25:12;104166.94;;;13.96;62.04
65659;BME280;60181;53.258;6.932;2023-02-07T16:29:14;104163.96;;;13.95;62.04
65659;BME280;60181;53.258;6.932;2023-02-07T16:33:16;104162.41;;;13.95;61.78
65659;BME280;60181;53.258;6.932;2023-02-07T16:37:20;104163.21;;;13.98;61.54
65659;BME280;60181;53.258;6.932;2023-02-07T16:41:25;104164.26;;;13.99;61.66
65659;BME280;60181;53.258;6.932;2023-02-07T16:45:28;104164.59;;;13.99;61.72
65659;BME280;60181;53.258;6.932;2023-02-07T16:49:32;104165.45;;;13.98;61.76
65659;BME280;60181;53.258;6.932;2023-02-07T16:53:36;104164.18;;;13.98;61.78
65659;BME280;60181;53.258;6.932;2023-02-07T16:57:40;104164.10;;;13.97;61.80
65659;BME280;60181;53.258;6.932;2023-02-07T17:01:44;104164.53;;;13.97;61.78
65659;BME280;60181;53.258;6.932;2023-02-07T17:05:48;104166.50;;;13.96;61.80
65659;BME280;60181;53.258;6.932;2023-02-07T17:09:52;104168.02;;;13.96;61.84
65659;BME280;60181;53.258;6.932;2023-02-07T17:13:57;104167.58;;;13.95;61.86
65659;BME280;60181;53.258;6.932;2023-02-07T17:18:00;104168.93;;;13.95;61.89
65659;BME280;60181;53.258;6.932;2023-02-07T17:22:04;104168.65;;;13.94;61.88
65659;BME280;60181;53.258;6.932;2023-02-07T17:26:10;104168.52;;;13.94;61.90
65659;BME280;60181;53.258;6.932;2023-02-07T17:30:22;104168.76;;;13.93;61.95
65659;BME280;60181;53.258;6.932;2023-02-07T17:34:16;104170.61;;;13.92;61.92
65659;BME280;60181;53.258;6.932;2023-02-07T17:38:20;104173.55;;;13.91;61.94
65659;BME280;60181;53.258;6.932;2023-02-07T17:42:24;104175.84;;;13.91;61.94
65659;BME280;60181;53.258;6.932;2023-02-07T17:46:28;104176.03;;;13.90;61.93
65659;BME280;60181;53.258;6.932;2023-02-07T17:50:36;104175.72;;;13.89;61.94
65659;BME280;60181;53.258;6.932;2023-02-07T17:54:36;104176.51;;;13.89;61.96
65659;BME280;60181;53.258;6.932;2023-02-07T17:58:40;104176.54;;;13.88;61.96
65659;BME280;60181;53.258;6.932;2023-02-07T18:02:44;104177.39;;;13.87;61.96
65659;BME280;60181;53.258;6.932;2023-02-07T18:06:48;104178.03;;;13.87;61.95
65659;BME280;60181;53.258;6.932;2023-02-07T18:10:52;104178.14;;;13.86;61.95
65659;BME280;60181;53.258;6.932;2023-02-07T18:14:56;104178.61;;;13.86;61.96
65659;BME280;60181;53.258;6.932;2023-02-07T18:19:00;104177.86;;;13.85;61.93
65659;BME280;60181;53.258;6.932;2023-02-07T18:23:04;104177.86;;;13.85;61.92
65659;BME280;60181;53.258;6.932;2023-02-07T18:27:08;104176.75;;;13.85;61.94
65659;BME280;60181;53.258;6.932;2023-02-07T18:31:22;104175.10;;;13.85;61.90
65659;BME280;60181;53.258;6.932;2023-02-07T18:35:16;104175.60;;;13.85;61.93
65659;BME280;60181;53.258;6.932;2023-02-07T18:39:20;104176.21;;;13.85;61.89
65659;BME280;60181;53.258;6.932;2023-02-07T18:43:24;104176.14;;;13.86;61.87
65659;BME280;60181;53.258;6.932;2023-02-07T18:47:29;104177.36;;;13.85;61.89
65659;BME280;60181;53.258;6.932;2023-02-07T18:51:32;104179.17;;;13.85;61.88
65659;BME280;60181;53.258;6.932;2023-02-07T18:55:36;104181.91;;;13.86;61.83
65659;BME280;60181;53.258;6.932;2023-02-07T18:59:40;104183.39;;;13.86;61.88
65659;BME280;60181;53.258;6.932;2023-02-07T19:03:44;104183.63;;;13.85;61.89
65659;BME280;60181;53.258;6.932;2023-02-07T19:07:48;104184.16;;;13.85;61.88
65659;BME280;60181;53.258;6.932;2023-02-07T19:11:52;104187.12;;;13.85;61.90
65659;BME280;60181;53.258;6.932;2023-02-07T19:16:03;104187.93;;;13.85;61.91
65659;BME280;60181;53.258;6.932;2023-02-07T19:20:00;104188.57;;;13.84;61.92
65659;BME280;60181;53.258;6.932;2023-02-07T19:24:05;104189.14;;;13.92;61.24
65659;BME280;60181;53.258;6.932;2023-02-07T19:28:08;104190.14;;;13.97;61.38
65659;BME280;60181;53.258;6.932;2023-02-07T19:32:12;104190.47;;;13.97;61.89
65659;BME280;60181;53.258;6.932;2023-02-07T19:36:16;104190.86;;;13.95;62.12
65659;BME280;60181;53.258;6.932;2023-02-07T19:40:20;104192.93;;;13.93;62.11
65659;BME280;60181;53.258;6.932;2023-02-07T19:44:24;104194.47;;;13.91;62.11
65659;BME280;60181;53.258;6.932;2023-02-07T19:48:28;104196.17;;;13.88;62.12
65659;BME280;60181;53.258;6.932;2023-02-07T19:52:32;104197.89;;;13.87;62.09
65659;BME280;60181;53.258;6.932;2023-02-07T19:56:36;104198.45;;;13.85;62.07
65659;BME280;60181;53.258;6.932;2023-02-07T20:00:40;104199.05;;;13.84;62.06
65659;BME280;60181;53.258;6.932;2023-02-07T20:04:44;104198.23;;;13.83;62.04
65659;BME280;60181;53.258;6.932;2023-02-07T20:08:48;104196.73;;;13.83;62.01
65659;BME280;60181;53.258;6.932;2023-02-07T20:12:52;104195.36;;;13.82;61.95
65659;BME280;60181;53.258;6.932;2023-02-07T20:16:56;104194.37;;;13.82;61.94
65659;BME280;60181;53.258;6.932;2023-02-07T20:21:04;104193.30;;;13.82;61.94
65659;BME280;60181;53.258;6.932;2023-02-07T20:25:04;104193.37;;;13.82;61.92
65659;BME280;60181;53.258;6.932;2023-02-07T20:29:15;104193.25;;;13.82;61.93
65659;BME280;60181;53.258;6.932;2023-02-07T20:33:12;104192.82;;;13.81;61.91
65659;BME280;60181;53.258;6.932;2023-02-07T20:37:16;104192.07;;;13.81;61.88
65659;BME280;60181;53.258;6.932;2023-02-07T20:41:20;104192.47;;;13.81;61.92
65659;BME280;60181;53.258;6.932;2023-02-07T20:45:24;104191.50;;;13.80;61.90
65659;BME280;60181;53.258;6.932;2023-02-07T20:49:28;104192.57;;;13.80;61.89
65659;BME280;60181;53.258;6.932;2023-02-07T20:53:32;104193.08;;;13.79;61.87
65659;BME280;60181;53.258;6.932;2023-02-07T20:57:36;104194.54;;;13.79;61.88
65659;BME280;60181;53.258;6.932;2023-02-07T21:01:40;104196.02;;;13.79;61.82
65659;BME280;60181;53.258;6.932;2023-02-07T21:05:43;104196.69;;;13.79;61.80
65659;BME280;60181;53.258;6.932;2023-02-07T21:09:47;104195.41;;;13.78;61.81
65659;BME280;60181;53.258;6.932;2023-02-07T21:13:51;104196.39;;;13.78;61.76
65659;BME280;60181;53.258;6.932;2023-02-07T21:17:55;104197.88;;;13.78;61.81
65659;BME280;60181;53.258;6.932;2023-02-07T21:21:59;104198.86;;;13.78;61.79
65659;BME280;60181;53.258;6.932;2023-02-07T21:26:04;104199.34;;;13.78;61.78
65659;BME280;60181;53.258;6.932;2023-02-07T21:30:08;104199.07;;;13.78;61.80
65659;BME280;60181;53.258;6.932;2023-02-07T21:34:12;104198.58;;;13.78;61.76
65659;BME280;60181;53.258;6.932;2023-02-07T21:38:15;104198.95;;;13.77;61.74
65659;BME280;60181;53.258;6.932;2023-02-07T21:42:19;104198.36;;;13.77;61.74
65659;BME280;60181;53.258;6.932;2023-02-07T21:46:25;104197.53;;;13.77;61.75
65659;BME280;60181;53.258;6.932;2023-02-07T21:50:27;104197.44;;;13.76;61.73
65659;BME280;60181;53.258;6.932;2023-02-07T21:54:32;104196.64;;;13.76;61.77
65659;BME280;60181;53.258;6.932;2023-02-07T21:58:35;104195.47;;;13.75;61.77
65659;BME280;60181;53.258;6.932;2023-02-07T22:02:39;104193.90;;;13.75;61.72
65659;BME280;60181;53.258;6.932;2023-02-07T22:06:44;104191.76;;;13.77;61.60
65659;BME280;60181;53.258;6.932;2023-02-07T22:10:47;104188.60;;;13.88;60.76
65659;BME280;60181;53.258;6.932;2023-02-07T22:14:51;104184.39;;;14.01;60.65
65659;BME280;60181;53.258;6.932;2023-02-07T22:18:56;104181.42;;;14.10;60.95
65659;BME280;60181;53.258;6.932;2023-02-07T22:22:59;104178.22;;;14.18;61.18
65659;BME280;60181;53.258;6.932;2023-02-07T22:27:03;104175.13;;;14.24;61.14
65659;BME280;60181;53.258;6.932;2023-02-07T22:31:08;104171.95;;;14.28;61.03
65659;BME280;60181;53.258;6.932;2023-02-07T22:35:11;104169.14;;;14.30;60.90
65659;BME280;60181;53.258;6.932;2023-02-07T22:39:16;104167.31;;;14.32;60.77
65659;BME280;60181;53.258;6.932;2023-02-07T22:43:19;104165.42;;;14.34;60.92
65659;BME280;60181;53.258;6.932;2023-02-07T22:47:23;104165.25;;;14.35;61.07
65659;BME280;60181;53.258;6.932;2023-02-07T22:51:28;104165.22;;;14.36;61.04
65659;BME280;60181;53.258;6.932;2023-02-07T22:55:32;104162.10;;;14.36;61.03
65659;BME280;60181;53.258;6.932;2023-02-07T22:59:35;104158.70;;;14.36;61.01